sensor_id;sensor_type;location;lat;lon;timestamp;pressure;altitude;pressure_sealevel;temperature;humidity
54172;BME280;40076;52.354;4.970;2023-02-11T00:00:17;103375.91;;;8.18;100.00
54172;BME280;40076;52.354;4.970;2023-02-11T00:02:46;103375.09;;;8.18;100.00
54172;BME280;40076;52.354;4.970;2023-02-11T00:05:11;103374.03;;;8.19;100.00
54172;BME280;40076;52.354;4.970;2023-02-11T00:07:39;103363.75;;;8.16;100.00
54172;BME280;40076;52.354;4.970;2023-02-11T00:10:05;103367.28;;;8.16;100.00
54172;BME280;40076;52.354;4.970;2023-02-11T00:12:35;103375.34;;;8.16;100.00
54172;BME280;40076;52.354;4.970;2023-02-11T00:15:16;103378.03;;;8.16;100.00
54172;BME280;40076;52.354;4.970;2023-02-11T00:17:46;103373.94;;;8.13;100.00
54172;BME280;40076;52.354;4.970;2023-02-11T00:20:11;103379.34;;;8.13;100.00
54172;BME280;40076;52.354;4.970;2023-02-11T00:22:39;103381.22;;;8.13;100.00
54172;BME280;40076;52.354;4.970;2023-02-11T00:25:05;103383.91;;;8.13;100.00
54172;BME280;40076;52.354;4.970;2023-02-11T00:27:33;103377.69;;;8.12;100.00
54172;BME280;40076;52.354;4.970;2023-02-11T00:29:58;103389.28;;;8.13;100.00
54172;BME280;40076;52.354;4.970;2023-02-11T00:32:26;103395.72;;;8.12;100.00
54172;BME280;40076;52.354;4.970;2023-02-11T00:34:54;103395.72;;;8.12;100.00
54172;BME280;40076;52.354;4.970;2023-02-11T00:37:20;103401.09;;;8.12;100.00
54172;BME280;40076;52.354;4.970;2023-02-11T00:39:45;103401.09;;;8.12;100.00
54172;BME280;40076;52.354;4.970;2023-02-11T00:42:13;103385.19;;;8.10;100.00
54172;BME280;40076;52.354;4.970;2023-02-11T00:44:39;103389.75;;;8.10;100.00
54172;BME280;40076;52.354;4.970;2023-02-11T00:47:07;103380.03;;;8.09;100.00
54172;BME280;40076;52.354;4.970;2023-02-11T00:49:32;103375.47;;;8.09;100.00
54172;BME280;40076;52.354;4.970;2023-02-11T00:51:58;103376.56;;;8.08;100.00
54172;BME280;40076;52.354;4.970;2023-02-11T00:54:23;103363.09;;;8.08;100.00
54172;BME280;40076;52.354;4.970;2023-02-11T00:56:52;103355.47;;;8.05;100.00
54172;BME280;40076;52.354;4.970;2023-02-11T00:59:17;103352.56;;;8.07;100.00
54172;BME280;40076;52.354;4.970;2023-02-11T01:01:46;103347.16;;;8.07;100.00
54172;BME280;40076;52.354;4.970;2023-02-11T01:04:11;103338.25;;;8.06;100.00
54172;BME280;40076;52.354;4.970;2023-02-11T01:06:43;103327.16;;;8.03;100.00
54172;BME280;40076;52.354;4.970;2023-02-11T01:09:08;103335.22;;;8.03;100.00
54172;BME280;40076;52.354;4.970;2023-02-11T01:11:33;103339.56;;;8.04;100.00
54172;BME280;40076;52.354;4.970;2023-02-11T01:13:59;103346.56;;;8.05;100.00
54172;BME280;40076;52.354;4.970;2023-02-11T01:16:27;103346.81;;;8.03;100.00
54172;BME280;40076;52.354;4.970;2023-02-11T01:18:52;103351.38;;;8.03;100.00
54172;BME280;40076;52.354;4.970;2023-02-11T01:21:18;103362.97;;;8.03;100.00
54172;BME280;40076;52.354;4.970;2023-02-11T01:23:43;103379.13;;;8.03;100.00
54172;BME280;40076;52.354;4.970;2023-02-11T01:26:09;103385.31;;;8.04;100.00
54172;BME280;40076;52.354;4.970;2023-02-11T01:28:34;103380.19;;;8.02;100.00
54172;BME280;40076;52.354;4.970;2023-02-11T01:31:01;103378.31;;;8.03;100.00
54172;BME280;40076;52.354;4.970;2023-02-11T01:33:29;103371.03;;;8.03;100.00
54172;BME280;40076;52.354;4.970;2023-02-11T01:35:59;103368.34;;;8.03;100.00
54172;BME280;40076;52.354;4.970;2023-02-11T01:38:25;103366.84;;;8.07;100.00
54172;BME280;40076;52.354;4.970;2023-02-11T01:40:57;103369.25;;;8.09;100.00
54172;BME280;40076;52.354;4.970;2023-02-11T01:43:24;103362.81;;;8.10;100.00
54172;BME280;40076;52.354;4.970;2023-02-11T01:48:41;103372.06;;;8.14;100.00
54172;BME280;40076;52.354;4.970;2023-02-11T01:51:17;103354.84;;;8.15;100.00
54172;BME280;40076;52.354;4.970;2023-02-11T01:53:45;103357.28;;;8.17;100.00
54172;BME280;40076;52.354;4.970;2023-02-11T01:56:30;103356.72;;;8.14;100.00
54172;BME280;40076;52.354;4.970;2023-02-11T01:59:21;103357.78;;;8.13;100.00
54172;BME280;40076;52.354;4.970;2023-02-11T02:01:56;103362.13;;;8.14;100.00
54172;BME280;40076;52.354;4.970;2023-02-11T02:04:26;103343.25;;;8.14;100.00
54172;BME280;40076;52.354;4.970;2023-02-11T02:07:02;103349.47;;;8.15;100.00
54172;BME280;40076;52.354;4.970;2023-02-11T02:09:35;103354.03;;;8.14;100.00
54172;BME280;40076;52.354;4.970;2023-02-11T02:12:05;103363.50;;;8.17;100.00
54172;BME280;40076;52.354;4.970;2023-02-11T02:14:30;103357.28;;;8.17;100.00
54172;BME280;40076;52.354;4.970;2023-02-11T02:16:59;103370.75;;;8.17;100.00
54172;BME280;40076;52.354;4.970;2023-02-11T02:19:56;103368.06;;;8.17;100.00
54172;BME280;40076;52.354;4.970;2023-02-11T02:25:12;103351.34;;;8.14;100.00
54172;BME280;40076;52.354;4.970;2023-02-11T02:30:38;103349.94;;;8.12;100.00
54172;BME280;40076;52.354;4.970;2023-02-11T02:33:25;103353.09;;;8.09;100.00
54172;BME280;40076;52.354;4.970;2023-02-11T02:41:18;103348.22;;;8.06;100.00
54172;BME280;40076;52.354;4.970;2023-02-11T02:43:47;103348.22;;;8.06;100.00
54172;BME280;40076;52.354;4.970;2023-02-11T02:48:41;103342.47;;;8.02;100.00
54172;BME280;40076;52.354;4.970;2023-02-11T02:57:34;103350.94;;;7.94;100.00
54172;BME280;40076;52.354;4.970;2023-02-11T03:00:21;103344.50;;;7.95;100.00
54172;BME280;40076;52.354;4.970;2023-02-11T03:06:02;103344.72;;;7.94;100.00
54172;BME280;40076;52.354;4.970;2023-02-11T03:08:54;103344.19;;;7.92;100.00
54172;BME280;40076;52.354;4.970;2023-02-11T03:11:22;103339.63;;;7.92;100.00
54172;BME280;40076;52.354;4.970;2023-02-11T03:13:49;103333.41;;;7.92;100.00
54172;BME280;40076;52.354;4.970;2023-02-11T03:16:24;103331.78;;;7.91;100.00
54172;BME280;40076;52.354;4.970;2023-02-11T03:19:09;103334.69;;;7.89;100.00
54172;BME280;40076;52.354;4.970;2023-02-11T03:21:38;103344.88;;;7.87;100.00
54172;BME280;40076;52.354;4.970;2023-02-11T03:24:13;103348.06;;;7.84;100.00
54172;BME280;40076;52.354;4.970;2023-02-11T03:26:43;103349.72;;;7.85;100.00
54172;BME280;40076;52.354;4.970;2023-02-11T03:29:19;103331.69;;;7.86;100.00
54172;BME280;40076;52.354;4.970;2023-02-11T03:32:12;103326.53;;;7.84;100.00
54172;BME280;40076;52.354;4.970;2023-02-11T03:37:21;103319.75;;;7.82;100.00
54172;BME280;40076;52.354;4.970;2023-02-11T03:39:54;103314.81;;;7.79;100.00
54172;BME280;40076;52.354;4.970;2023-02-11T03:42:28;103319.41;;;7.78;100.00
54172;BME280;40076;52.354;4.970;2023-02-11T03:44:59;103318.59;;;7.78;100.00
54172;BME280;40076;52.354;4.970;2023-02-11T03:47:29;103311.34;;;7.78;100.00
54172;BME280;40076;52.354;4.970;2023-02-11T03:49:56;103316.72;;;7.78;100.00
54172;BME280;40076;52.354;4.970;2023-02-11T03:52:24;103325.03;;;7.77;100.00
54172;BME280;40076;52.354;4.970;2023-02-11T03:54:53;103325.03;;;7.77;100.00
54172;BME280;40076;52.354;4.970;2023-02-11T03:57:19;103326.91;;;7.76;100.00
54172;BME280;40076;52.354;4.970;2023-02-11T03:59:55;103336.84;;;7.75;100.00
54172;BME280;40076;52.354;4.970;2023-02-11T04:02:24;103323.41;;;7.75;100.00
54172;BME280;40076;52.354;4.970;2023-02-11T04:04:50;103320.47;;;7.77;100.00
54172;BME280;40076;52.354;4.970;2023-02-11T04:07:16;103333.66;;;7.79;100.00
54172;BME280;40076;52.354;4.970;2023-02-11T04:09:41;103318.59;;;7.78;100.00
54172;BME280;40076;52.354;4.970;2023-02-11T04:12:07;103319.66;;;7.77;100.00
54172;BME280;40076;52.354;4.970;2023-02-11T04:14:33;103315.91;;;7.78;100.00
54172;BME280;40076;52.354;4.970;2023-02-11T04:16:58;103310.53;;;7.78;100.00
54172;BME280;40076;52.354;4.970;2023-02-11T04:19:23;103313.22;;;7.78;100.00
54172;BME280;40076;52.354;4.970;2023-02-11T04:21:49;103315.66;;;7.79;100.00
54172;BME280;40076;52.354;4.970;2023-02-11T04:24:14;103312.94;;;7.79;100.00
54172;BME280;40076;52.354;4.970;2023-02-11T04:26:40;103312.94;;;7.79;100.00
54172;BME280;40076;52.354;4.970;2023-02-11T04:29:05;103301.38;;;7.79;100.00
54172;BME280;40076;52.354;4.970;2023-02-11T04:31:34;103304.06;;;7.79;100.00
54172;BME280;40076;52.354;4.970;2023-02-11T04:33:59;103311.09;;;7.80;100.00
54172;BME280;40076;52.354;4.970;2023-02-11T04:36:25;103303.00;;;7.80;100.00
54172;BME280;40076;52.354;4.970;2023-02-11T04:38:50;103308.16;;;7.81;100.00
54172;BME280;40076;52.354;4.970;2023-02-11T04:41:18;103313.53;;;7.81;100.00
54172;BME280;40076;52.354;4.970;2023-02-11T04:43:43;103313.53;;;7.81;100.00
54172;BME280;40076;52.354;4.970;2023-02-11T04:46:09;103327.81;;;7.82;100.00
54172;BME280;40076;52.354;4.970;2023-02-11T04:48:42;103324.06;;;7.83;100.00
54172;BME280;40076;52.354;4.970;2023-02-11T04:51:08;103329.22;;;7.84;100.00
54172;BME280;40076;52.354;4.970;2023-02-11T04:53:33;103341.88;;;7.84;100.00
54172;BME280;40076;52.354;4.970;2023-02-11T04:55:59;103347.84;;;7.86;100.00
54172;BME280;40076;52.354;4.970;2023-02-11T04:58:24;103349.44;;;7.87;100.00
54172;BME280;40076;52.354;4.970;2023-02-11T05:00:50;103347.34;;;7.89;100.00
54172;BME280;40076;52.354;4.970;2023-02-11T05:03:15;103347.34;;;7.89;100.00
54172;BME280;40076;52.354;4.970;2023-02-11T05:05:41;103350.84;;;7.89;100.00
54172;BME280;40076;52.354;4.970;2023-02-11T05:08:08;103350.84;;;7.89;100.00
54172;BME280;40076;52.354;4.970;2023-02-11T05:10:34;103356.00;;;7.91;100.00
54172;BME280;40076;52.354;4.970;2023-02-11T05:12:59;103363.84;;;7.92;100.00
54172;BME280;40076;52.354;4.970;2023-02-11T05:15:25;103359.84;;;7.95;100.00
54172;BME280;40076;52.354;4.970;2023-02-11T05:17:52;103353.63;;;7.94;100.00
54172;BME280;40076;52.354;4.970;2023-02-11T05:20:19;103357.13;;;7.95;100.00
54172;BME280;40076;52.354;4.970;2023-02-11T05:22:44;103357.13;;;7.95;100.00
54172;BME280;40076;52.354;4.970;2023-02-11T05:25:10;103350.47;;;7.97;100.00
54172;BME280;40076;52.354;4.970;2023-02-11T05:27:36;103351.28;;;7.98;100.00
54172;BME280;40076;52.354;4.970;2023-02-11T05:30:04;103355.63;;;7.99;100.00
54172;BME280;40076;52.354;4.970;2023-02-11T05:32:30;103347.53;;;7.99;100.00
54172;BME280;40076;52.354;4.970;2023-02-11T05:34:56;103351.88;;;8.00;100.00
54172;BME280;40076;52.354;4.970;2023-02-11T05:37:23;103347.31;;;8.00;100.00
54172;BME280;40076;52.354;4.970;2023-02-11T05:39:49;103350.00;;;8.00;100.00
54172;BME280;40076;52.354;4.970;2023-02-11T05:42:14;103348.69;;;8.03;100.00
54172;BME280;40076;52.354;4.970;2023-02-11T05:44:40;103351.38;;;8.03;100.00
54172;BME280;40076;52.354;4.970;2023-02-11T05:47:06;103346.56;;;8.05;100.00
54172;BME280;40076;52.354;4.970;2023-02-11T05:49:34;103350.91;;;8.06;100.00
54172;BME280;40076;52.354;4.970;2023-02-11T05:52:03;103349.03;;;8.06;100.00
54172;BME280;40076;52.354;4.970;2023-02-11T05:54:28;103347.16;;;8.07;100.00
54172;BME280;40076;52.354;4.970;2023-02-11T05:56:53;103353.38;;;8.07;100.00
54172;BME280;40076;52.354;4.970;2023-02-11T05:59:21;103356.06;;;8.07;100.00
54172;BME280;40076;52.354;4.970;2023-02-11T06:01:54;103353.38;;;8.07;100.00
54172;BME280;40076;52.354;4.970;2023-02-11T06:04:20;103347.16;;;8.07;100.00
54172;BME280;40076;52.354;4.970;2023-02-11T06:06:46;103351.50;;;8.08;100.00
54172;BME280;40076;52.354;4.970;2023-02-11T06:09:11;103349.34;;;8.10;100.00
54172;BME280;40076;52.354;4.970;2023-02-11T06:11:42;103349.63;;;8.08;100.00
54172;BME280;40076;52.354;4.970;2023-02-11T06:14:08;103349.13;;;8.11;100.00
54172;BME280;40076;52.354;4.970;2023-02-11T06:16:36;103357.19;;;8.11;100.00
54172;BME280;40076;52.354;4.970;2023-02-11T06:19:04;103359.91;;;8.11;100.00
54172;BME280;40076;52.354;4.970;2023-02-11T06:21:30;103358.84;;;8.12;100.00
54172;BME280;40076;52.354;4.970;2023-02-11T06:23:55;103360.47;;;8.13;100.00
54172;BME280;40076;52.354;4.970;2023-02-11T06:26:22;103362.13;;;8.14;100.00
54172;BME280;40076;52.354;4.970;2023-02-11T06:28:48;103353.22;;;8.14;100.00
54172;BME280;40076;52.354;4.970;2023-02-11T06:31:14;103354.84;;;8.15;100.00
54172;BME280;40076;52.354;4.970;2023-02-11T06:33:40;103358.38;;;8.16;100.00
54172;BME280;40076;52.354;4.970;2023-02-11T06:36:24;103354.34;;;8.18;100.00
54172;BME280;40076;52.354;4.970;2023-02-11T06:38:49;103353.31;;;8.19;100.00
54172;BME280;40076;52.354;4.970;2023-02-11T06:41:17;103343.59;;;8.18;100.00
54172;BME280;40076;52.354;4.970;2023-02-11T06:43:44;103352.47;;;8.19;100.00
54172;BME280;40076;52.354;4.970;2023-02-11T06:46:10;103351.66;;;8.18;100.00
54172;BME280;40076;52.354;4.970;2023-02-11T06:48:38;103349.78;;;8.19;100.00
54172;BME280;40076;52.354;4.970;2023-02-11T06:51:06;103360.78;;;8.17;100.00
54172;BME280;40076;52.354;4.970;2023-02-11T06:53:37;103356.22;;;8.18;100.00
54172;BME280;40076;52.354;4.970;2023-02-11T06:56:08;103357.06;;;8.18;100.00
54172;BME280;40076;52.354;4.970;2023-02-11T06:58:34;103360.56;;;8.19;100.00
54172;BME280;40076;52.354;4.970;2023-02-11T07:01:03;103369.69;;;8.18;100.00
54172;BME280;40076;52.354;4.970;2023-02-11T07:03:31;103368.88;;;8.17;100.00
54172;BME280;40076;52.354;4.970;2023-02-11T07:05:57;103372.41;;;8.18;100.00
54172;BME280;40076;52.354;4.970;2023-02-11T07:08:22;103370.53;;;8.18;100.00
54172;BME280;40076;52.354;4.970;2023-02-11T07:10:47;103362.44;;;8.18;100.00
54172;BME280;40076;52.354;4.970;2023-02-11T07:13:13;103364.31;;;8.18;100.00
54172;BME280;40076;52.354;4.970;2023-02-11T07:15:38;103368.88;;;8.17;100.00
54172;BME280;40076;52.354;4.970;2023-02-11T07:18:03;103377.22;;;8.16;100.00
54172;BME280;40076;52.354;4.970;2023-02-11T07:20:29;103381.53;;;8.17;100.00
54172;BME280;40076;52.354;4.970;2023-02-11T07:22:54;103384.22;;;8.17;100.00
54172;BME280;40076;52.354;4.970;2023-02-11T07:25:20;103386.13;;;8.16;100.00
54172;BME280;40076;52.354;4.970;2023-02-11T07:27:45;103387.19;;;8.15;100.00
54172;BME280;40076;52.354;4.970;2023-02-11T07:30:11;103388.81;;;8.16;100.00
54172;BME280;40076;52.354;4.970;2023-02-11T07:32:40;103388.81;;;8.16;100.00
54172;BME280;40076;52.354;4.970;2023-02-11T07:35:06;103379.09;;;8.15;100.00
54172;BME280;40076;52.354;4.970;2023-02-11T07:37:34;103375.59;;;8.14;100.00
54172;BME280;40076;52.354;4.970;2023-02-11T07:40:00;103386.34;;;8.14;100.00
54172;BME280;40076;52.354;4.970;2023-02-11T07:42:26;103386.34;;;8.14;100.00
54172;BME280;40076;52.354;4.970;2023-02-11T07:44:51;103389.88;;;8.15;100.00
54172;BME280;40076;52.354;4.970;2023-02-11T07:47:17;103383.66;;;8.14;100.00
54172;BME280;40076;52.354;4.970;2023-02-11T07:49:42;103392.56;;;8.15;100.00
54172;BME280;40076;52.354;4.970;2023-02-11T07:52:08;103391.50;;;8.16;100.00
54172;BME280;40076;52.354;4.970;2023-02-11T07:54:33;103390.44;;;8.17;100.00
54172;BME280;40076;52.354;4.970;2023-02-11T07:57:01;103397.69;;;8.17;100.00
54172;BME280;40076;52.354;4.970;2023-02-11T07:59:26;103392.06;;;8.18;100.00
54172;BME280;40076;52.354;4.970;2023-02-11T08:01:52;103400.16;;;8.18;100.00
54172;BME280;40076;52.354;4.970;2023-02-11T08:04:17;103403.66;;;8.19;100.00
54172;BME280;40076;52.354;4.970;2023-02-11T08:06:43;103405.53;;;8.18;100.00
54172;BME280;40076;52.354;4.970;2023-02-11T08:09:13;103406.59;;;8.17;100.00
54172;BME280;40076;52.354;4.970;2023-02-11T08:11:39;103411.72;;;8.19;100.00
54172;BME280;40076;52.354;4.970;2023-02-11T08:14:10;103416.06;;;8.20;100.00
54172;BME280;40076;52.354;4.970;2023-02-11T08:16:39;103409.88;;;8.19;100.00
54172;BME280;40076;52.354;4.970;2023-02-11T08:19:15;103415.00;;;8.21;100.00
54172;BME280;40076;52.354;4.970;2023-02-11T08:21:40;103417.47;;;8.22;100.00
54172;BME280;40076;52.354;4.970;2023-02-11T08:24:09;103418.31;;;8.23;100.00
54172;BME280;40076;52.354;4.970;2023-02-11T08:26:34;103415.34;;;8.24;100.00
54172;BME280;40076;52.354;4.970;2023-02-11T08:29:04;103416.97;;;8.25;100.00
54172;BME280;40076;52.354;4.970;2023-02-11T08:31:36;103415.94;;;8.26;100.00
54172;BME280;40076;52.354;4.970;2023-02-11T08:34:05;103426.69;;;8.26;100.00
54172;BME280;40076;52.354;4.970;2023-02-11T08:36:33;103430.44;;;8.25;100.00
54172;BME280;40076;52.354;4.970;2023-02-11T08:39:02;103429.16;;;8.28;100.00
54172;BME280;40076;52.354;4.970;2023-02-11T08:41:29;103424.59;;;8.28;100.00
54172;BME280;40076;52.354;4.970;2023-02-11T08:43:55;103426.22;;;8.29;100.00
54172;BME280;40076;52.354;4.970;2023-02-11T08:46:20;103426.03;;;8.31;100.00
54172;BME280;40076;52.354;4.970;2023-02-11T08:48:46;103426.84;;;8.31;100.00
54172;BME280;40076;52.354;4.970;2023-02-11T08:51:15;103441.69;;;8.34;100.00
54172;BME280;40076;52.354;4.970;2023-02-11T08:53:40;103434.44;;;8.34;100.00
54172;BME280;40076;52.354;4.970;2023-02-11T08:56:06;103438.75;;;8.35;100.00
54172;BME280;40076;52.354;4.970;2023-02-11T08:58:34;103444.97;;;8.36;100.00
54172;BME280;40076;52.354;4.970;2023-02-11T09:00:59;103438.31;;;8.38;100.00
54172;BME280;40076;52.354;4.970;2023-02-11T09:03:25;103441.00;;;8.38;100.00
54172;BME280;40076;52.354;4.970;2023-02-11T09:05:56;103448.81;;;8.40;100.00
54172;BME280;40076;52.354;4.970;2023-02-11T09:08:25;103449.63;;;8.40;100.00
54172;BME280;40076;52.354;4.970;2023-02-11T09:10:50;103458.53;;;8.41;100.00
54172;BME280;40076;52.354;4.970;2023-02-11T09:13:19;103457.72;;;8.40;100.00
54172;BME280;40076;52.354;4.970;2023-02-11T09:15:47;103465.31;;;8.43;100.00
54172;BME280;40076;52.354;4.970;2023-02-11T09:18:13;103461.59;;;8.44;100.00
54172;BME280;40076;52.354;4.970;2023-02-11T09:20:38;103460.53;;;8.45;100.00
54172;BME280;40076;52.354;4.970;2023-02-11T09:23:04;103464.88;;;8.46;100.00
54172;BME280;40076;52.354;4.970;2023-02-11T09:25:45;103467.28;;;8.48;100.00
54172;BME280;40076;52.354;4.970;2023-02-11T09:28:11;103474.56;;;8.47;100.00
54172;BME280;40076;52.354;4.970;2023-02-11T09:30:39;103473.28;;;8.50;100.00
54172;BME280;40076;52.354;4.970;2023-02-11T09:33:05;103466.81;;;8.51;100.00
54172;BME280;40076;52.354;4.970;2023-02-11T09:35:31;103464.72;;;8.53;100.00
54172;BME280;40076;52.354;4.970;2023-02-11T09:37:57;103469.84;;;8.55;100.00
54172;BME280;40076;52.354;4.970;2023-02-11T09:40:22;103471.25;;;8.57;100.00
54172;BME280;40076;52.354;4.970;2023-02-11T09:43:07;103483.44;;;8.60;100.00
54172;BME280;40076;52.354;4.970;2023-02-11T09:45:35;103492.34;;;8.60;100.00
54172;BME280;40076;52.354;4.970;2023-02-11T09:48:12;103484.00;;;8.62;100.00
54172;BME280;40076;52.354;4.970;2023-02-11T09:50:46;103494.28;;;8.65;100.00
54172;BME280;40076;52.354;4.970;2023-02-11T09:53:25;103492.66;;;8.64;100.00
54172;BME280;40076;52.354;4.970;2023-02-11T09:55:53;103498.41;;;8.67;100.00
54172;BME280;40076;52.354;4.970;2023-02-11T09:58:27;103500.03;;;8.68;100.00
54172;BME280;40076;52.354;4.970;2023-02-11T10:15:41;103523.41;;;8.79;100.00
54172;BME280;40076;52.354;4.970;2023-02-11T10:18:25;103524.47;;;8.78;100.00
54172;BME280;40076;52.354;4.970;2023-02-11T10:24:13;103526.53;;;8.88;100.00
54172;BME280;40076;52.354;4.970;2023-02-11T10:26:39;103536.03;;;8.90;100.00
54172;BME280;40076;52.354;4.970;2023-02-11T10:31:54;103547.81;;;9.01;100.00
54172;BME280;40076;52.354;4.970;2023-02-11T10:34:19;103551.56;;;9.00;100.00
54172;BME280;40076;52.354;4.970;2023-02-11T10:36:44;103543.00;;;9.03;100.00
54172;BME280;40076;52.354;4.970;2023-02-11T10:39:30;103535.25;;;9.07;100.00
54172;BME280;40076;52.354;4.970;2023-02-11T10:42:00;103539.34;;;9.09;100.00
54172;BME280;40076;52.354;4.970;2023-02-11T10:44:32;103544.50;;;9.11;100.00
54172;BME280;40076;52.354;4.970;2023-02-11T10:47:02;103546.72;;;9.14;100.00
54172;BME280;40076;52.354;4.970;2023-02-11T10:49:40;103541.88;;;9.16;100.00
54172;BME280;40076;52.354;4.970;2023-02-11T10:52:24;103544.34;;;9.17;100.00
54172;BME280;40076;52.354;4.970;2023-02-11T10:55:04;103545.97;;;9.18;100.00
54172;BME280;40076;52.354;4.970;2023-02-11T10:57:34;103544.91;;;9.19;100.00
54172;BME280;40076;52.354;4.970;2023-02-11T11:00:25;103556.59;;;9.25;100.00
54172;BME280;40076;52.354;4.970;2023-02-11T11:02:57;103559.06;;;9.26;100.00
54172;BME280;40076;52.354;4.970;2023-02-11T11:05:35;103550.72;;;9.28;100.00
54172;BME280;40076;52.354;4.970;2023-02-11T11:08:06;103554.84;;;9.31;100.00
54172;BME280;40076;52.354;4.970;2023-02-11T11:16:32;103563.09;;;9.41;100.00
54172;BME280;40076;52.354;4.970;2023-02-11T11:21:45;103557.22;;;9.44;100.00
54172;BME280;40076;52.354;4.970;2023-02-11T11:24:53;103556.47;;;9.48;100.00
54172;BME280;40076;52.354;4.970;2023-02-11T11:27:01;103558.03;;;9.44;100.00
54172;BME280;40076;52.354;4.970;2023-02-11T11:31:57;103559.41;;;9.47;100.00
54172;BME280;40076;52.354;4.970;2023-02-11T11:34:37;103557.03;;;9.50;100.00
54172;BME280;40076;52.354;4.970;2023-02-11T11:37:22;103562.50;;;9.55;100.00
54172;BME280;40076;52.354;4.970;2023-02-11T11:42:27;103564.16;;;9.56;100.00
54172;BME280;40076;52.354;4.970;2023-02-11T11:45:01;103564.16;;;9.56;100.00
54172;BME280;40076;52.354;4.970;2023-02-11T11:47:31;103574.94;;;9.56;100.00
54172;BME280;40076;52.354;4.970;2023-02-11T11:50:17;103581.50;;;9.60;100.00
54172;BME280;40076;52.354;4.970;2023-02-11T11:53:04;103585.81;;;9.61;100.00
54172;BME280;40076;52.354;4.970;2023-02-11T11:55:44;103582.06;;;9.62;100.00
54172;BME280;40076;52.354;4.970;2023-02-11T11:58:30;103575.94;;;9.67;100.00
54172;BME280;40076;52.354;4.970;2023-02-11T12:14:23;103558.34;;;9.81;100.00
54172;BME280;40076;52.354;4.970;2023-02-11T12:17:02;103558.09;;;9.83;100.00
54172;BME280;40076;52.354;4.970;2023-02-11T12:25:24;103552.53;;;9.89;100.00
54172;BME280;40076;52.354;4.970;2023-02-11T12:36:24;103563.38;;;9.94;100.00
54172;BME280;40076;52.354;4.970;2023-02-11T12:39:04;103570.44;;;9.95;100.00
54172;BME280;40076;52.354;4.970;2023-02-11T12:41:44;103556.44;;;9.98;100.00
54172;BME280;40076;52.354;4.970;2023-02-11T12:44:39;103564.03;;;10.01;100.00
54172;BME280;40076;52.354;4.970;2023-02-11T12:53:19;103567.13;;;10.10;100.00
54172;BME280;40076;52.354;4.970;2023-02-11T12:55:52;103556.66;;;10.14;100.00
54172;BME280;40076;52.354;4.970;2023-02-11T12:58:22;103559.09;;;10.15;100.00
54172;BME280;40076;52.354;4.970;2023-02-11T13:01:02;103568.13;;;10.21;100.00
54172;BME280;40076;52.354;4.970;2023-02-11T13:03:37;103573.25;;;10.22;100.00
54172;BME280;40076;52.354;4.970;2023-02-11T13:06:13;103570.06;;;10.25;100.00
54172;BME280;40076;52.354;4.970;2023-02-11T13:08:45;103564.44;;;10.27;100.00
54172;BME280;40076;52.354;4.970;2023-02-11T13:11:27;103562.84;;;10.31;100.00
54172;BME280;40076;52.354;4.970;2023-02-11T13:14:02;103567.44;;;10.30;100.00
54172;BME280;40076;52.354;4.970;2023-02-11T13:16:41;103564.25;;;10.33;100.00
54172;BME280;40076;52.354;4.970;2023-02-11T13:24:42;103547.53;;;10.36;100.00
54172;BME280;40076;52.354;4.970;2023-02-11T13:27:22;103550.53;;;10.40;100.00
54172;BME280;40076;52.354;4.970;2023-02-11T13:35:30;103535.94;;;10.41;100.00
54172;BME280;40076;52.354;4.970;2023-02-11T13:37:58;103538.41;;;10.42;100.00
54172;BME280;40076;52.354;4.970;2023-02-11T13:40:26;103539.81;;;10.45;100.00
54172;BME280;40076;52.354;4.970;2023-02-11T13:42:55;103540.34;;;10.47;100.00
54172;BME280;40076;52.354;4.970;2023-02-11T13:45:44;103534.94;;;10.47;100.00
54172;BME280;40076;52.354;4.970;2023-02-11T13:50:45;103545.75;;;10.47;100.00
54172;BME280;40076;52.354;4.970;2023-02-11T13:53:12;103543.63;;;10.49;100.00
54172;BME280;40076;52.354;4.970;2023-02-11T13:55:44;103547.97;;;10.50;100.00
54172;BME280;40076;52.354;4.970;2023-02-11T14:06:35;103556.44;;;10.59;100.00
54172;BME280;40076;52.354;4.970;2023-02-11T14:09:40;103551.88;;;10.59;100.00
54172;BME280;40076;52.354;4.970;2023-02-11T14:12:21;103542.94;;;10.59;100.00
54172;BME280;40076;52.354;4.970;2023-02-11T14:14:58;103542.13;;;10.58;100.00
54172;BME280;40076;52.354;4.970;2023-02-11T14:17:29;103547.53;;;10.58;100.00
54172;BME280;40076;52.354;4.970;2023-02-11T14:19:55;103551.03;;;10.59;100.00
54172;BME280;40076;52.354;4.970;2023-02-11T14:22:25;103547.28;;;10.60;100.00
54172;BME280;40076;52.354;4.970;2023-02-11T14:27:30;103544.88;;;10.63;100.00
54172;BME280;40076;52.354;4.970;2023-02-11T14:30:30;103558.97;;;10.65;100.00
54172;BME280;40076;52.354;4.970;2023-02-11T14:42:03;103557.28;;;10.59;100.00
54172;BME280;40076;52.354;4.970;2023-02-11T14:44:30;103554.56;;;10.59;100.00
54172;BME280;40076;52.354;4.970;2023-02-11T14:47:00;103551.88;;;10.59;100.00
54172;BME280;40076;52.354;4.970;2023-02-11T14:49:32;103549.97;;;10.60;100.00
54172;BME280;40076;52.354;4.970;2023-02-11T14:52:04;103559.97;;;10.59;100.00
54172;BME280;40076;52.354;4.970;2023-02-11T14:54:32;103560.22;;;10.58;100.00
54172;BME280;40076;52.354;4.970;2023-02-11T14:57:12;103556.44;;;10.59;100.00
54172;BME280;40076;52.354;4.970;2023-02-11T14:59:39;103570.78;;;10.59;100.00
54172;BME280;40076;52.354;4.970;2023-02-11T15:02:21;103572.69;;;10.59;100.00
54172;BME280;40076;52.354;4.970;2023-02-11T15:04:47;103572.44;;;10.60;100.00
54172;BME280;40076;52.354;4.970;2023-02-11T15:07:15;103580.22;;;10.57;100.00
54172;BME280;40076;52.354;4.970;2023-02-11T15:09:52;103571.03;;;10.58;100.00
54172;BME280;40076;52.354;4.970;2023-02-11T15:12:22;103572.91;;;10.57;100.00